Time;durP1;ratioP1;P1;durP2;ratioP2;P2;SDS_P1;SDS_P2;PMS_P1;PMS_P2;Temp;Humidity;BMP_temperature;BMP_pressure;BME280_temperature;BME280_humidity;BME280_pressure;Samples;Min_cycle;Max_cycle;Signal;HPM_P1;HPM_P2
2024/01/06 00:00:28;;;;;;;9.18;5.95;;;;;;;1.95;100.00;100723.66;5061094;28;20048;-46
2024/01/06 00:02:55;;;;;;;13.77;6.90;;;;;;;1.94;100.00;100722.84;5066107;28;20060;-49
2024/01/06 00:05:23;;;;;;;15.02;7.25;;;;;;;1.93;100.00;100731.31;5066152;28;20037;-48
2024/01/06 00:07:50;;;;;;;11.07;6.20;;;;;;;1.92;100.00;100727.78;5048625;28;20573;-47
2024/01/06 00:10:17;;;;;;;15.18;6.28;;;;;;;1.91;100.00;100741.72;5065548;28;20056;-47
2024/01/06 00:12:45;;;;;;;12.80;5.85;;;;;;;1.91;100.00;100728.06;5058491;28;20143;-45
2024/01/06 00:15:13;;;;;;;18.80;6.93;;;;;;;1.90;100.00;100737.34;5066153;28;20512;-45
2024/01/06 00:17:40;;;;;;;18.92;6.80;;;;;;;1.88;100.00;100725.91;5066380;28;20037;-48
2024/01/06 00:20:08;;;;;;;15.05;6.72;;;;;;;1.88;100.00;100734.09;5065708;28;20541;-47
2024/01/06 00:22:36;;;;;;;16.20;7.70;;;;;;;1.84;100.00;100734.69;5056973;28;20049;-50
2024/01/06 00:25:04;;;;;;;13.25;6.15;;;;;;;1.81;100.00;100729.78;5062667;28;20545;-46
2024/01/06 00:27:31;;;;;;;11.50;5.88;;;;;;;1.81;100.00;100735.25;5069359;28;20517;-50
2024/01/06 00:29:59;;;;;;;14.57;6.63;;;;;;;1.81;100.00;100746.16;5057868;28;20055;-46
2024/01/06 00:32:26;;;;;;;13.88;6.88;;;;;;;1.80;100.00;100749.97;5058912;28;20060;-46
2024/01/06 00:34:54;;;;;;;11.45;6.25;;;;;;;1.78;100.00;100741.28;5070035;28;20056;-49
2024/01/06 00:37:21;;;;;;;13.25;6.20;;;;;;;1.78;100.00;100745.91;5067413;28;20053;-48
2024/01/06 00:39:48;;;;;;;17.77;6.25;;;;;;;1.76;100.00;100759.84;5066211;28;20534;-45
2024/01/06 00:42:16;;;;;;;17.52;6.18;;;;;;;1.76;100.00;100761.75;5068606;28;20407;-45
2024/01/06 00:44:45;;;;;;;11.63;6.35;;;;;;;1.74;100.00;100762.06;5069437;28;20044;-46
2024/01/06 00:47:12;;;;;;;12.82;6.55;;;;;;;1.75;100.00;100763.69;5051864;28;20051;-45
2024/01/06 00:49:40;;;;;;;18.25;6.63;;;;;;;1.73;100.00;100771.34;5068803;28;20036;-49
2024/01/06 00:52:07;;;;;;;12.70;5.50;;;;;;;1.72;100.00;100764.25;5068839;28;20071;-50
2024/01/06 00:54:34;;;;;;;11.35;5.45;;;;;;;1.73;100.00;100778.72;5068105;28;20040;-50
2024/01/06 00:57:03;;;;;;;15.20;6.05;;;;;;;1.70;100.00;100780.09;5069211;28;20051;-47
2024/01/06 00:59:30;;;;;;;8.93;5.20;;;;;;;1.69;100.00;100770.31;5069553;28;20048;-50
2024/01/06 01:01:59;;;;;;;13.25;5.88;;;;;;;1.70;100.00;100782.00;5069525;28;20175;-51
2024/01/06 01:04:26;;;;;;;16.95;5.75;;;;;;;1.69;100.00;100775.75;5068521;28;20457;-49
2024/01/06 01:06:53;;;;;;;13.93;5.82;;;;;;;1.68;100.00;100786.94;5051539;28;20047;-46
2024/01/06 01:09:21;;;;;;;10.60;5.70;;;;;;;1.68;100.00;100776.84;5065090;28;20399;-47
2024/01/06 01:11:48;;;;;;;13.70;6.05;;;;;;;1.68;100.00;100784.22;5068666;28;20067;-47
2024/01/06 01:14:18;;;;;;;13.00;5.80;;;;;;;1.67;100.00;100790.75;5069308;28;20048;-47
2024/01/06 01:16:45;;;;;;;12.13;5.45;;;;;;;1.67;100.00;100793.50;5069167;28;20063;-48
2024/01/06 01:19:13;;;;;;;10.40;5.88;;;;;;;1.65;100.00;100792.97;5068295;28;20048;-47
2024/01/06 01:21:40;;;;;;;9.05;4.93;;;;;;;1.60;100.00;100799.28;5047711;28;20048;-48
2024/01/06 01:24:08;;;;;;;8.85;5.60;;;;;;;1.58;100.00;100789.75;5050161;28;20056;-47
2024/01/06 01:26:35;;;;;;;11.60;6.00;;;;;;;1.58;100.00;100798.75;5067598;28;20033;-48
2024/01/06 01:29:03;;;;;;;12.93;5.03;;;;;;;1.57;100.00;100799.84;5068015;28;20048;-45
2024/01/06 01:31:30;;;;;;;13.00;6.15;;;;;;;1.56;100.00;100798.22;5068499;28;20518;-45
2024/01/06 01:33:57;;;;;;;14.55;5.85;;;;;;;1.53;100.00;100793.34;5068254;28;20040;-50
2024/01/06 01:36:25;;;;;;;10.32;4.90;;;;;;;1.52;100.00;100796.34;5064813;28;20048;-46
2024/01/06 01:38:52;;;;;;;13.70;5.95;;;;;;;1.49;100.00;100803.19;5068427;28;20414;-50
2024/01/06 01:41:21;;;;;;;15.05;5.40;;;;;;;1.48;100.00;100796.13;5067792;28;20494;-45
2024/01/06 01:43:48;;;;;;;15.63;6.25;;;;;;;1.48;100.00;100804.31;5062239;28;20076;-50
2024/01/06 01:46:15;;;;;;;11.75;5.78;;;;;;;1.44;100.00;100803.22;5059408;28;20051;-45
2024/01/06 01:48:43;;;;;;;12.82;5.95;;;;;;;1.44;100.00;100799.66;5067972;28;20048;-44
2024/01/06 01:51:11;;;;;;;14.25;6.15;;;;;;;1.43;100.00;100814.44;5068036;28;20494;-48
2024/01/06 01:53:38;;;;;;;10.57;5.15;;;;;;;1.42;100.00;100810.88;5050159;28;20052;-46
2024/01/06 01:56:05;;;;;;;10.25;4.60;;;;;;;1.42;100.00;100818.25;5067174;28;20052;-47
2024/01/06 01:58:33;;;;;;;18.25;5.80;;;;;;;1.40;100.00;100812.25;5067644;28;20045;-51
2024/01/06 02:01:00;;;;;;;13.13;5.47;;;;;;;1.40;100.00;100809.53;5067354;28;20781;-45
2024/01/06 02:03:30;;;;;;;9.35;5.22;;;;;;;1.40;100.00;100815.00;5068102;28;20051;-45
2024/01/06 02:05:59;;;;;;;11.30;5.22;;;;;;;1.40;100.00;100815.81;5066762;28;20391;-45
2024/01/06 02:08:26;;;;;;;14.70;5.63;;;;;;;1.39;100.00;100814.16;5049813;28;20495;-45
2024/01/06 02:10:55;;;;;;;16.80;5.43;;;;;;;1.36;100.00;100817.44;5066370;28;20060;-46
2024/01/06 02:13:23;;;;;;;9.13;6.57;;;;;;;1.36;100.00;100824.81;5061423;28;20048;-48
2024/01/06 02:15:52;;;;;;;13.52;5.43;;;;;;;1.35;100.00;100826.72;5065276;28;20052;-45
2024/01/06 02:18:20;;;;;;;12.10;5.60;;;;;;;1.35;100.00;100834.91;5066405;28;20044;-46
2024/01/06 02:20:50;;;;;;;22.73;7.55;;;;;;;1.35;100.00;100839.56;5067531;28;20040;-46
2024/01/06 02:23:18;;;;;;;7.10;4.78;;;;;;;1.33;100.00;100842.56;5067410;28;20502;-45
2024/01/06 02:25:46;;;;;;;13.77;5.32;;;;;;;1.31;100.00;100844.75;5067850;28;20051;-47
2024/01/06 02:28:13;;;;;;;20.92;7.75;;;;;;;1.32;100.00;100840.94;5066470;28;20047;-45
2024/01/06 02:30:40;;;;;;;9.15;5.72;;;;;;;1.30;100.00;100840.41;5067224;28;20059;-49
2024/01/06 02:33:08;;;;;;;14.00;5.32;;;;;;;1.30;100.00;100855.97;5065835;28;20044;-48
2024/01/06 02:35:35;;;;;;;15.43;5.47;;;;;;;1.28;100.00;100855.41;5068131;28;20799;-45
2024/01/06 02:38:03;;;;;;;21.75;9.13;;;;;;;1.27;100.00;100860.06;5066347;28;20056;-47
2024/01/06 02:40:31;;;;;;;11.10;5.50;;;;;;;1.27;100.00;100870.16;5051727;28;20041;-48
2024/01/06 02:42:59;;;;;;;14.23;6.13;;;;;;;1.24;100.00;100875.06;5064993;28;20048;-49
2024/01/06 02:45:26;;;;;;;9.18;5.20;;;;;;;1.26;100.00;100874.78;5065844;28;20714;-44
2024/01/06 02:47:54;;;;;;;16.25;4.88;;;;;;;1.26;100.00;100885.69;5046893;28;20040;-46
2024/01/06 02:50:23;;;;;;;21.13;5.38;;;;;;;1.25;100.00;100873.16;5067657;28;20056;-48
2024/01/06 02:52:50;;;;;;;9.35;5.22;;;;;;;1.23;100.00;100887.06;5062000;28;20052;-45
2024/01/06 02:55:18;;;;;;;7.97;4.50;;;;;;;1.22;100.00;100888.16;5066927;28;20054;-46
2024/01/06 02:57:45;;;;;;;8.57;4.95;;;;;;;1.20;100.00;100887.63;5062962;28;20055;-48
2024/01/06 03:00:13;;;;;;;10.32;6.00;;;;;;;1.20;100.00;100895.00;5045837;28;20045;-50
2024/01/06 03:02:42;;;;;;;12.45;5.22;;;;;;;1.20;100.00;100895.00;4983749;22;20052;-45
2024/01/06 03:05:10;;;;;;;15.80;6.20;;;;;;;1.17;100.00;100899.09;5067142;28;20059;-45
2024/01/06 03:07:37;;;;;;;11.30;5.50;;;;;;;1.17;100.00;100898.28;5059328;28;20044;-48
2024/01/06 03:10:05;;;;;;;16.50;6.03;;;;;;;1.18;100.00;100894.47;5065628;28;20048;-53
2024/01/06 03:12:34;;;;;;;15.18;4.80;;;;;;;1.19;100.00;100896.09;5061722;28;20040;-45
2024/01/06 03:15:01;;;;;;;14.80;4.90;;;;;;;1.17;100.00;100898.28;5066885;28;20051;-47
2024/01/06 03:17:28;;;;;;;14.68;5.63;;;;;;;1.16;100.00;100892.03;5049723;28;20036;-46
2024/01/06 03:19:57;;;;;;;12.55;5.90;;;;;;;1.17;100.00;100890.91;5066283;28;20040;-48
2024/01/06 03:22:24;;;;;;;9.50;4.85;;;;;;;1.15;100.00;100900.47;5053769;28;20040;-45
2024/01/06 03:24:52;;;;;;;17.25;6.78;;;;;;;1.13;100.00;100903.50;5066704;28;20519;-44
2024/01/06 03:27:19;;;;;;;23.80;6.68;;;;;;;1.13;100.00;100897.22;5066508;28;20513;-45
2024/01/06 03:29:47;;;;;;;12.15;5.13;;;;;;;1.13;100.00;100891.75;5065976;28;20056;-45
2024/01/06 03:32:14;;;;;;;11.48;4.72;;;;;;;1.12;100.00;100901.03;5065946;28;20048;-45
2024/01/06 03:34:41;;;;;;;12.50;5.82;;;;;;;1.11;100.00;100899.41;5066176;28;20413;-46
2024/01/06 03:37:09;;;;;;;12.23;5.63;;;;;;;1.08;100.00;100903.50;5062653;28;20589;-47
2024/01/06 03:39:36;;;;;;;12.50;6.05;;;;;;;1.07;100.00;100907.31;5066227;28;20064;-47
2024/01/06 03:42:04;;;;;;;18.92;5.32;;;;;;;1.09;100.00;100909.75;5066312;28;20053;-45
2024/01/06 03:44:33;;;;;;;15.90;5.45;;;;;;;1.09;100.00;100907.84;5065892;28;20507;-45
2024/01/06 03:47:01;;;;;;;13.05;5.70;;;;;;;1.10;100.00;100914.13;5065880;28;20127;-45
2024/01/06 03:49:28;;;;;;;13.90;5.47;;;;;;;1.10;100.00;100905.94;5066355;28;20053;-45
2024/01/06 03:51:55;;;;;;;13.95;5.65;;;;;;;1.10;100.00;100911.41;5065720;28;20057;-45
2024/01/06 03:54:23;;;;;;;16.90;6.25;;;;;;;1.09;100.00;100923.38;5062194;28;20056;-45
2024/01/06 03:56:51;;;;;;;12.40;5.45;;;;;;;1.07;100.00;100914.69;5067083;28;20040;-46
2024/01/06 03:59:18;;;;;;;15.05;5.47;;;;;;;1.06;100.00;100913.06;5067275;28;20858;-47
2024/01/06 04:01:45;;;;;;;17.88;4.85;;;;;;;1.05;100.00;100917.69;5070457;28;20056;-45
2024/01/06 04:04:13;;;;;;;11.85;5.10;;;;;;;1.04;100.00;100915.22;5068777;28;20037;-45
2024/01/06 04:06:41;;;;;;;13.80;5.30;;;;;;;1.02;100.00;100920.16;5070401;28;20052;-46
2024/01/06 04:09:09;;;;;;;8.27;4.32;;;;;;;1.02;100.00;100923.69;5069700;28;20051;-44
2024/01/06 04:11:36;;;;;;;17.63;6.65;;;;;;;1.02;100.00;100917.44;5069244;28;20410;-46
2024/01/06 04:14:04;;;;;;;10.63;4.95;;;;;;;0.98;100.00;100917.16;5069209;28;20051;-45
2024/01/06 04:16:31;;;;;;;10.70;4.75;;;;;;;0.97;100.00;100923.72;5069261;28;20060;-47
2024/01/06 04:18:58;;;;;;;10.45;3.88;;;;;;;0.96;100.00;100932.16;5056841;28;20040;-45
2024/01/06 04:21:26;;;;;;;16.95;5.03;;;;;;;0.94;100.00;100926.16;5069714;28;20041;-45
2024/01/06 04:23:55;;;;;;;17.20;5.60;;;;;;;0.92;100.00;100933.81;5067759;28;20037;-45
2024/01/06 04:26:23;;;;;;;10.02;4.40;;;;;;;0.90;100.00;100923.16;5069558;28;20045;-46
2024/01/06 04:28:51;;;;;;;11.02;4.60;;;;;;;0.90;100.00;100931.34;5050197;28;20060;-46
2024/01/06 04:31:18;;;;;;;11.23;5.00;;;;;;;0.87;100.00;100933.84;5070100;28;20052;-45
2024/01/06 04:33:45;;;;;;;10.27;4.05;;;;;;;0.87;100.00;100931.09;5063397;28;20060;-45
2024/01/06 04:36:13;;;;;;;11.27;4.93;;;;;;;0.85;100.00;100933.31;5051805;28;20052;-45
2024/01/06 04:38:40;;;;;;;10.00;4.43;;;;;;;0.83;100.00;100944.47;5062141;28;20044;-46
2024/01/06 04:41:08;;;;;;;7.72;4.07;;;;;;;0.81;100.00;100948.56;5069300;28;20260;-45
2024/01/06 04:43:36;;;;;;;14.73;5.03;;;;;;;0.79;100.00;100942.56;5060715;28;20136;-46
2024/01/06 04:46:03;;;;;;;10.60;4.88;;;;;;;0.79;100.00;100948.03;5063040;28;20409;-45
2024/01/06 04:48:31;;;;;;;10.77;4.20;;;;;;;0.76;100.00;100957.56;5069558;28;20048;-45
2024/01/06 04:50:58;;;;;;;8.70;4.43;;;;;;;0.77;100.00;100958.38;5068910;28;20413;-45
2024/01/06 04:53:25;;;;;;;11.07;4.70;;;;;;;0.76;100.00;100957.56;5060755;28;20057;-45
2024/01/06 04:55:53;;;;;;;11.50;5.30;;;;;;;0.77;100.00;100963.84;5068116;28;20048;-46
2024/01/06 04:58:20;;;;;;;14.18;3.50;;;;;;;0.76;100.00;100963.00;5069292;28;20055;-47
2024/01/06 05:00:47;;;;;;;12.73;4.53;;;;;;;0.76;100.00;100964.91;5068953;28;20048;-44
2024/01/06 05:03:15;;;;;;;16.52;4.32;;;;;;;0.76;100.00;100956.75;5068822;28;20401;-45
2024/01/06 05:05:42;;;;;;;9.13;4.05;;;;;;;0.77;100.00;100966.56;5063194;28;20048;-45
2024/01/06 05:08:10;;;;;;;11.00;4.60;;;;;;;0.75;100.00;100971.44;5059820;28;20312;-45
2024/01/06 05:10:37;;;;;;;13.38;5.60;;;;;;;0.78;100.00;100973.63;5068479;28;20383;-45
2024/01/06 05:13:04;;;;;;;10.85;3.97;;;;;;;0.76;100.00;100973.91;5062506;28;20048;-46
2024/01/06 05:15:31;;;;;;;13.57;4.63;;;;;;;0.75;100.00;100972.25;5067834;28;20666;-45
2024/01/06 05:17:59;;;;;;;9.80;4.50;;;;;;;0.76;100.00;100971.19;5069031;28;20053;-49
2024/01/06 05:20:26;;;;;;;7.95;3.50;;;;;;;0.77;100.00;100982.91;5067079;28;20434;-47
2024/01/06 05:22:54;;;;;;;11.82;3.55;;;;;;;0.75;100.00;100976.91;5068251;28;20045;-46
2024/01/06 05:25:21;;;;;;;11.55;5.20;;;;;;;0.75;100.00;100982.34;5062865;28;20834;-45
2024/01/06 05:27:48;;;;;;;14.63;4.82;;;;;;;0.73;100.00;100984.53;5069136;28;20574;-45
2024/01/06 05:30:16;;;;;;;7.78;3.65;;;;;;;0.76;100.00;100984.00;5065325;28;20048;-45
2024/01/06 05:32:43;;;;;;;10.68;4.32;;;;;;;0.74;100.00;100988.91;5068496;28;20044;-48
2024/01/06 05:35:11;;;;;;;9.82;3.65;;;;;;;0.73;100.00;100989.97;5068741;28;20041;-47
2024/01/06 05:37:38;;;;;;;8.65;4.57;;;;;;;0.72;100.00;100989.16;5050565;28;20126;-48
2024/01/06 05:40:07;;;;;;;9.95;4.47;;;;;;;0.73;100.00;101000.88;5067955;28;20052;-45
2024/01/06 05:42:34;;;;;;;13.38;3.88;;;;;;;0.73;100.00;100992.72;5068136;28;20048;-45
2024/01/06 05:45:02;;;;;;;9.60;3.75;;;;;;;0.72;100.00;100999.22;5068337;28;20056;-48
2024/01/06 05:47:30;;;;;;;11.15;3.80;;;;;;;0.72;100.00;101007.41;5056269;28;20057;-45
2024/01/06 05:49:58;;;;;;;9.93;4.50;;;;;;;0.71;100.00;101008.53;5066588;28;20064;-49
2024/01/06 05:52:25;;;;;;;9.05;3.72;;;;;;;0.70;100.00;101006.88;5067564;28;20052;-52
2024/01/06 05:54:52;;;;;;;8.43;3.35;;;;;;;0.70;100.00;101007.69;5066999;28;20055;-45
2024/01/06 05:57:20;;;;;;;8.60;3.38;;;;;;;0.70;100.00;101009.59;5066423;28;20052;-45
2024/01/06 05:59:47;;;;;;;5.80;3.88;;;;;;;0.71;100.00;101017.53;5061688;28;20091;-46
2024/01/06 06:02:14;;;;;;;6.93;3.15;;;;;;;0.71;100.00;101019.41;5067454;28;20053;-45
2024/01/06 06:04:41;;;;;;;14.30;3.65;;;;;;;0.72;100.00;101023.75;5067666;28;20036;-46
2024/01/06 06:07:09;;;;;;;13.60;3.53;;;;;;;0.71;100.00;101022.16;5065837;28;20580;-45
2024/01/06 06:09:37;;;;;;;12.15;4.13;;;;;;;0.71;100.00;101030.31;5060231;28;20506;-48
2024/01/06 06:12:05;;;;;;;7.40;3.25;;;;;;;0.70;100.00;101040.41;5042980;28;20087;-44
2024/01/06 06:14:32;;;;;;;6.15;3.60;;;;;;;0.71;100.00;101035.78;5068074;28;20032;-47
2024/01/06 06:17:00;;;;;;;12.40;4.18;;;;;;;0.71;100.00;101039.31;5066824;28;20075;-48
2024/01/06 06:19:28;;;;;;;7.72;3.35;;;;;;;0.71;100.00;101043.94;5065336;28;20076;-46
2024/01/06 06:21:55;;;;;;;9.43;3.10;;;;;;;0.69;100.00;101038.75;5031721;28;20366;-48
2024/01/06 06:24:23;;;;;;;9.13;3.83;;;;;;;0.70;100.00;101053.19;5066096;28;20065;-45
2024/01/06 06:26:50;;;;;;;13.60;3.45;;;;;;;0.67;100.00;101049.09;5067270;28;20044;-44
2024/01/06 06:29:18;;;;;;;7.40;3.03;;;;;;;0.66;100.00;101047.50;5066835;28;20707;-45
2024/01/06 06:31:46;;;;;;;8.25;3.45;;;;;;;0.68;100.00;101058.09;5064145;28;20052;-46
2024/01/06 06:34:14;;;;;;;10.35;3.85;;;;;;;0.68;100.00;101066.28;5066247;28;20051;-45
2024/01/06 06:36:41;;;;;;;6.03;3.05;;;;;;;0.65;100.00;101070.38;5055631;28;20041;-49
2024/01/06 06:39:09;;;;;;;14.50;3.88;;;;;;;0.64;100.00;101059.75;5040300;28;20044;-45
2024/01/06 06:41:36;;;;;;;15.27;3.60;;;;;;;0.64;100.00;101065.19;5067385;28;20051;-44
2024/01/06 06:44:04;;;;;;;14.13;3.88;;;;;;;0.65;100.00;101072.25;5066124;28;20048;-45
2024/01/06 06:46:31;;;;;;;9.88;2.95;;;;;;;0.65;100.00;101080.44;5066829;28;20520;-45
2024/01/06 06:48:59;;;;;;;5.90;3.03;;;;;;;0.62;100.00;101087.25;5066649;28;20405;-45
2024/01/06 06:51:26;;;;;;;9.70;3.50;;;;;;;0.62;100.00;101087.25;5048573;28;20056;-45
2024/01/06 06:53:54;;;;;;;12.70;3.65;;;;;;;0.60;100.00;101087.53;5049800;28;20048;-45
2024/01/06 06:56:22;;;;;;;9.20;3.83;;;;;;;0.61;100.00;101099.22;5067059;28;20048;-45
2024/01/06 06:58:49;;;;;;;6.75;3.80;;;;;;;0.61;100.00;101101.94;5066792;28;20048;-48
2024/01/06 07:01:16;;;;;;;7.00;3.22;;;;;;;0.62;100.00;101109.03;5047546;28;20541;-49
2024/01/06 07:03:44;;;;;;;5.20;3.17;;;;;;;0.64;100.00;101111.53;5066146;28;20048;-46
2024/01/06 07:06:13;;;;;;;7.15;3.38;;;;;;;0.64;100.00;101114.25;5048701;28;20048;-47
2024/01/06 07:08:41;;;;;;;6.38;2.28;;;;;;;0.63;100.00;101118.03;5063245;28;20159;-45
2024/01/06 07:11:11;;;;;;;6.60;3.38;;;;;;;0.61;100.00;101118.28;5065047;28;20037;-46
2024/01/06 07:13:39;;;;;;;11.98;2.95;;;;;;;0.61;100.00;101127.28;5064881;28;20378;-45
2024/01/06 07:16:07;;;;;;;5.18;2.72;;;;;;;0.63;100.00;101127.03;5066975;28;20041;-45
2024/01/06 07:18:45;;;;;;;8.45;3.05;;;;;;;0.63;100.00;101127.03;5066892;28;20626;-45
2024/01/06 07:21:13;;;;;;;6.53;2.63;;;;;;;0.63;100.00;101137.94;5057992;28;20745;-45
2024/01/06 07:23:42;;;;;;;6.57;2.70;;;;;;;0.61;100.00;101134.66;5067327;28;20047;-49
2024/01/06 07:26:09;;;;;;;21.75;2.78;;;;;;;0.63;100.00;101135.22;5066604;28;20049;-45
2024/01/06 07:28:37;;;;;;;11.15;3.15;;;;;;;0.63;100.00;101142.56;5063482;28;20045;-45
2024/01/06 07:31:04;;;;;;;10.57;3.70;;;;;;;0.64;100.00;101144.22;5066294;28;20049;-45
2024/01/06 07:33:32;;;;;;;7.85;2.33;;;;;;;0.65;100.00;101148.56;5064954;28;20063;-46
2024/01/06 07:36:02;;;;;;;12.25;2.28;;;;;;;0.64;100.00;101142.28;5071120;28;20049;-46
2024/01/06 07:38:30;;;;;;;10.73;3.70;;;;;;;0.66;100.00;101152.94;5070821;28;20071;-45
2024/01/06 07:40:58;;;;;;;10.07;2.38;;;;;;;0.66;100.00;101152.94;5070469;28;20409;-45
2024/01/06 07:43:25;;;;;;;8.57;2.78;;;;;;;0.67;100.00;101160.81;5058291;28;20117;-47
2024/01/06 07:45:53;;;;;;;12.88;4.40;;;;;;;0.68;100.00;101167.09;5066481;28;20541;-45
2024/01/06 07:48:21;;;;;;;8.30;2.13;;;;;;;0.68;100.00;101161.66;5064065;28;20402;-45
2024/01/06 07:50:48;;;;;;;9.45;2.70;;;;;;;0.68;100.00;101156.19;5061401;28;20053;-45
2024/01/06 07:53:16;;;;;;;6.68;2.78;;;;;;;0.70;100.00;101164.91;5063106;28;20047;-45
2024/01/06 07:55:45;;;;;;;6.57;3.28;;;;;;;0.70;100.00;101162.19;5052811;28;20139;-45
2024/01/06 07:58:12;;;;;;;8.38;2.60;;;;;;;0.70;100.00;101178.53;5061498;28;20060;-45
2024/01/06 08:00:40;;;;;;;11.88;2.72;;;;;;;0.69;100.00;101174.19;5062235;28;20042;-49
2024/01/06 08:03:08;;;;;;;6.93;2.45;;;;;;;0.72;100.00;101179.06;5060626;28;20110;-44
2024/01/06 08:05:35;;;;;;;8.45;2.42;;;;;;;0.71;100.00;101182.91;5070085;28;20044;-47
2024/01/06 08:08:04;;;;;;;2.88;1.95;;;;;;;0.71;100.00;101185.63;5068594;28;20071;-46
2024/01/06 08:10:31;;;;;;;7.00;2.65;;;;;;;0.70;100.00;101192.16;5049219;28;20060;-47
2024/01/06 08:12:59;;;;;;;7.45;2.28;;;;;;;0.72;100.00;101203.59;5070585;28;20041;-47
2024/01/06 08:15:26;;;;;;;6.72;2.65;;;;;;;0.73;100.00;101197.91;5066764;28;20059;-45
2024/01/06 08:17:55;;;;;;;10.27;4.07;;;;;;;0.73;100.00;101203.34;5062779;28;20049;-47
2024/01/06 08:20:23;;;;;;;7.45;2.45;;;;;;;0.74;100.00;101204.19;5064648;28;20505;-46
2024/01/06 08:22:50;;;;;;;5.05;2.67;;;;;;;0.74;100.00;101209.63;5042250;28;20422;-45
2024/01/06 08:25:17;;;;;;;6.95;2.50;;;;;;;0.74;100.00;101217.81;5069603;28;20060;-47
2024/01/06 08:27:45;;;;;;;8.48;3.08;;;;;;;0.74;100.00;101225.97;5069400;28;20044;-45
2024/01/06 08:30:12;;;;;;;7.75;3.03;;;;;;;0.73;100.00;101224.31;5061573;28;20048;-45
2024/01/06 08:32:40;;;;;;;5.93;2.95;;;;;;;0.73;100.00;101224.31;5059949;28;20056;-45
2024/01/06 08:35:08;;;;;;;7.32;2.30;;;;;;;0.72;100.00;101230.84;5068239;28;20040;-47
2024/01/06 08:37:35;;;;;;;11.68;3.15;;;;;;;0.73;100.00;101232.50;5070537;28;20520;-46
2024/01/06 08:40:04;;;;;;;9.85;3.20;;;;;;;0.72;100.00;101234.41;5069952;28;20052;-45
2024/01/06 08:42:32;;;;;;;8.48;2.75;;;;;;;0.70;100.00;101243.94;5069449;28;20131;-47
2024/01/06 08:44:59;;;;;;;15.55;2.55;;;;;;;0.69;100.00;101242.31;5067682;28;20059;-45
2024/01/06 08:47:27;;;;;;;7.55;2.78;;;;;;;0.68;100.00;101257.84;5067081;28;20052;-46
2024/01/06 08:49:54;;;;;;;6.22;2.63;;;;;;;0.68;100.00;101262.47;5051752;28;20056;-45
2024/01/06 08:52:22;;;;;;;6.53;2.50;;;;;;;0.68;100.00;101267.91;5068730;28;20057;-45
2024/01/06 08:54:49;;;;;;;6.72;2.92;;;;;;;0.70;100.00;101268.44;5067933;28;20401;-47
2024/01/06 08:57:17;;;;;;;13.10;2.75;;;;;;;0.72;100.00;101274.44;5068051;28;20421;-45
2024/01/06 08:59:45;;;;;;;5.82;2.58;;;;;;;0.72;100.00;101271.72;5063113;28;20048;-48
2024/01/06 09:02:12;;;;;;;7.05;3.72;;;;;;;0.73;100.00;101267.94;5066267;28;20065;-46
2024/01/06 09:04:40;;;;;;;14.23;3.58;;;;;;;0.73;100.00;101276.91;5066076;28;20060;-45
2024/01/06 09:07:07;;;;;;;13.13;3.70;;;;;;;0.75;100.00;101285.66;5068215;28;20060;-45
2024/01/06 09:09:34;;;;;;;9.63;3.00;;;;;;;0.78;100.00;101287.00;5069168;28;20055;-44
2024/01/06 09:12:02;;;;;;;9.23;3.15;;;;;;;0.80;100.00;101291.09;5065722;28;20045;-46
2024/01/06 09:14:30;;;;;;;8.40;2.92;;;;;;;0.83;100.00;101300.66;5068681;28;20059;-47
2024/01/06 09:16:57;;;;;;;5.18;2.50;;;;;;;0.84;100.00;101305.03;5067469;28;20079;-47
2024/01/06 09:19:25;;;;;;;5.57;2.53;;;;;;;0.84;100.00;101305.84;5051087;28;20503;-45
2024/01/06 09:21:52;;;;;;;7.93;2.97;;;;;;;0.85;100.00;101307.47;5069225;28;20413;-44
2024/01/06 09:24:20;;;;;;;9.07;3.20;;;;;;;0.87;100.00;101304.50;5049980;28;20036;-44
2024/01/06 09:26:50;;;;;;;11.45;2.72;;;;;;;0.92;100.00;101312.69;5069131;28;21172;-46
2024/01/06 09:29:17;;;;;;;8.63;4.22;;;;;;;0.93;100.00;101311.59;5068697;28;20049;-46
2024/01/06 09:31:44;;;;;;;4.55;3.42;;;;;;;0.94;100.00;101318.69;5068359;28;20518;-45
2024/01/06 09:34:12;;;;;;;7.97;3.47;;;;;;;0.95;100.00;101325.78;5069146;28;20056;-44
2024/01/06 09:36:40;;;;;;;12.00;4.10;;;;;;;0.97;100.00;101329.91;5067023;28;20372;-45
2024/01/06 09:39:08;;;;;;;12.60;4.43;;;;;;;0.99;100.00;101332.34;5068795;28;20782;-44
2024/01/06 09:41:35;;;;;;;7.03;3.03;;;;;;;1.02;100.00;101338.09;5068820;28;20040;-50
2024/01/06 09:44:03;;;;;;;15.30;3.75;;;;;;;1.06;100.00;101332.94;5056834;28;20049;-45
2024/01/06 09:46:31;;;;;;;9.23;3.83;;;;;;;1.09;100.00;101343.28;5066469;28;20057;-45
2024/01/06 09:48:59;;;;;;;9.75;3.28;;;;;;;1.11;100.00;101324.75;5068423;28;20040;-46
2024/01/06 09:51:28;;;;;;;12.95;3.80;;;;;;;1.13;100.00;101338.94;5068908;28;20423;-45
2024/01/06 09:54:00;;;;;;;13.30;4.38;;;;;;;1.15;100.00;101343.03;5068684;28;20379;-45
2024/01/06 09:56:29;;;;;;;11.88;3.33;;;;;;;1.18;100.00;101342.50;5054751;28;20045;-45
2024/01/06 09:58:56;;;;;;;11.27;3.90;;;;;;;1.21;100.00;101341.16;5067344;28;20052;-44
2024/01/06 10:01:24;;;;;;;15.82;4.55;;;;;;;1.23;100.00;101341.69;5068281;28;20067;-44
2024/01/06 10:03:52;;;;;;;14.48;3.78;;;;;;;1.27;100.00;101358.34;5067962;28;20593;-44
2024/01/06 10:06:20;;;;;;;11.05;4.32;;;;;;;1.30;100.00;101355.88;5068221;28;20048;-44
2024/01/06 10:08:49;;;;;;;7.78;3.63;;;;;;;1.34;100.00;101357.00;5064530;28;20494;-44
2024/01/06 10:11:18;;;;;;;7.95;3.03;;;;;;;1.37;100.00;101356.47;5064993;28;20142;-48
2024/01/06 10:13:45;;;;;;;4.68;3.33;;;;;;;1.41;100.00;101357.53;5063984;28;20049;-47
2024/01/06 10:16:13;;;;;;;8.23;3.92;;;;;;;1.46;100.00;101364.91;5068182;28;20059;-45
2024/01/06 10:18:40;;;;;;;10.38;4.03;;;;;;;1.50;100.00;101364.13;5068061;28;20060;-44
2024/01/06 10:21:08;;;;;;;13.02;3.17;;;;;;;1.56;100.00;101370.41;5067700;28;20060;-48
2024/01/06 10:23:36;;;;;;;14.48;2.88;;;;;;;1.62;100.00;101367.41;5067608;28;20044;-48
2024/01/06 10:26:05;;;;;;;11.00;3.13;;;;;;;1.67;100.00;101383.78;5067965;28;20594;-44
2024/01/06 10:28:33;;;;;;;12.27;2.70;;;;;;;1.71;100.00;101373.97;5067152;28;20405;-45
2024/01/06 10:31:01;;;;;;;8.68;3.40;;;;;;;1.75;100.00;101366.88;5064515;28;20052;-45
2024/01/06 10:33:29;;;;;;;8.02;2.53;;;;;;;1.80;100.00;101372.34;5066861;28;20720;-48
2024/01/06 10:35:57;;;;;;;5.75;2.15;;;;;;;1.85;100.00;101380.53;5067891;28;20048;-47
2024/01/06 10:38:27;;;;;;;4.93;1.98;;;;;;;1.90;100.00;101381.63;5067241;28;20041;-45
2024/01/06 10:41:06;;;;;;;4.80;2.10;;;;;;;1.94;100.00;101380.81;5067223;28;20056;-45
2024/01/06 10:43:37;;;;;;;17.33;3.63;;;;;;;2.01;100.00;101386.03;5061889;28;20040;-45
2024/01/06 10:46:09;;;;;;;10.68;3.30;;;;;;;2.04;100.00;101394.47;5066813;28;20048;-44
2024/01/06 10:48:42;;;;;;;5.25;2.10;;;;;;;2.09;100.00;101397.19;5067625;28;20029;-44
2024/01/06 10:51:13;;;;;;;4.93;2.13;;;;;;;2.12;100.00;101390.41;5066651;28;20398;-44
2024/01/06 10:53:42;;;;;;;3.03;1.67;;;;;;;2.15;100.00;101401.56;5066781;28;20052;-46
2024/01/06 10:56:10;;;;;;;6.95;2.55;;;;;;;2.19;100.00;101401.84;5067214;28;20040;-45
2024/01/06 10:58:44;;;;;;;9.68;3.55;;;;;;;2.20;100.00;101411.66;5067343;28;20052;-47
2024/01/06 11:01:12;;;;;;;10.40;3.92;;;;;;;2.18;100.00;101411.97;5066319;28;20060;-45
2024/01/06 11:03:45;;;;;;;;;;;;;;;2.17;100.00;101398.59;5067539;28;20532;-44
2024/01/06 11:06:13;;;;;;;6.20;2.72;;;;;;;2.17;100.00;101414.97;5067538;28;19931;-45
2024/01/06 11:08:49;;;;;;;9.23;3.65;;;;;;;2.17;100.00;101404.06;5066354;28;20053;-44
2024/01/06 11:11:20;;;;;;;13.27;3.90;;;;;;;2.19;100.00;101401.84;5067164;28;20040;-44
2024/01/06 11:13:48;;;;;;;6.95;2.67;;;;;;;2.21;100.00;101403.22;5066831;28;20061;-46
2024/01/06 11:16:37;;;;;;;12.13;2.63;;;;;;;2.25;100.00;101400.78;5066691;28;20464;-46
2024/01/06 11:19:35;;;;;;;7.50;2.90;;;;;;;2.28;100.00;101405.66;5055095;28;20050;-44
2024/01/06 11:22:24;;;;;;;7.70;3.03;;;;;;;2.30;100.00;101409.75;5066862;28;20053;-47
2024/01/06 11:24:53;;;;;;;4.85;2.65;;;;;;;2.33;100.00;101409.22;5066387;28;20052;-44